Minerva Astra — 9HDW7 — position and weather

sailwx.info

Track history (hours):
 
Tides and Currents Weather Stations Pressure Air Temp Water Temp Dewpoint Dewpoint Depression Visibility Wind Speed Wind Dir Waves Ship Positions

Minerva Astra

Last reported at 2016-Dec-09 05:34 UTC. Time now 2016-Dec-09 05:54 UTC.
Position N 54°05' E 008°08'.

Length 248 m; draft 8.5 m.

Type: Ship. MMSI: 256703000.

Date/timePositionNaut miles runAvg speedWind from/ knotsBaromVisibWave heightAir tempDewpointWater temp
2016-Dec-09 05:34N 54°05' E 008°08'0 0.0
2016-Dec-09 04:30N 54°05' E 008°08'0 0.0
2016-Dec-09 00:15N 54°05' E 008°08'0 0.0
2016-Dec-08 22:24N 54°05' E 008°08'0 0.0
2016-Dec-08 19:33N 54°05' E 008°08'0 0.0
2016-Dec-08 18:24N 54°05' E 008°08'1 0.9
2016-Dec-08 17:33N 54°04' E 008°08'5 5.3
2016-Dec-08 16:34N 54°00' E 008°14'1110.8
2016-Dec-08 15:33N 53°58' E 008°32'1111.0
2016-Dec-08 14:33N 53°51' E 008°46'1313.4
2016-Dec-08 13:34N 53°53' E 009°08'1111.3
2016-Dec-08 12:34N 53°46' E 009°24'1414.2
2016-Dec-08 11:34N 53°35' E 009°38'1111.1
2016-Dec-08 10:33N 53°32' E 009°56'2 2.2
2016-Dec-08 09:32N 53°30' E 009°57'0 0.0
2016-Dec-08 08:29N 53°30' E 009°57'0 0.0
2016-Dec-08 07:32N 53°30' E 009°57'0 0.0
2016-Dec-08 06:32N 53°30' E 009°57'0 0.0
2016-Dec-08 05:32N 53°30' E 009°57'0 0.0
2016-Dec-08 04:32N 53°30' E 009°57'0 0.0
2016-Dec-08 03:32N 53°30' E 009°57'0 0.0
2016-Dec-08 02:29N 53°30' E 009°57'0 0.0
2016-Dec-08 01:32N 53°30' E 009°57'0 0.0
2016-Dec-08 00:32N 53°30' E 009°57'0 0.0
2016-Dec-07 23:29N 53°30' E 009°57'0 0.0
2016-Dec-07 22:32N 53°30' E 009°57'0 0.0
2016-Dec-07 21:32N 53°30' E 009°57'0 0.0
2016-Dec-07 20:32N 53°30' E 009°57'0 0.0
2016-Dec-07 19:32N 53°30' E 009°57'0 0.0
2016-Dec-07 18:26N 53°30' E 009°57'0 0.0
2016-Dec-07 17:32N 53°30' E 009°57'0 0.0
2016-Dec-07 16:32N 53°30' E 009°57'0 0.0
2016-Dec-07 15:32N 53°30' E 009°57'0 0.0
2016-Dec-07 14:32N 53°30' E 009°57'0 0.0
2016-Dec-07 13:32N 53°30' E 009°57'0 0.0
2016-Dec-07 12:32N 53°30' E 009°57'0 0.0
2016-Dec-07 11:32N 53°30' E 009°57'0 0.0
2016-Dec-07 10:32N 53°30' E 009°57'0 0.0
2016-Dec-07 09:29N 53°30' E 009°57'0 0.0
2016-Dec-07 08:29N 53°30' E 009°57'0 0.0
2016-Dec-07 07:29N 53°30' E 009°57'0 0.0
2016-Dec-07 06:32N 53°30' E 009°57'0 0.0
2016-Dec-07 05:32N 53°30' E 009°57'0 0.0
2016-Dec-07 04:26N 53°30' E 009°57'0 0.0
2016-Dec-07 03:29N 53°30' E 009°57'0 0.0
2016-Dec-07 02:32N 53°30' E 009°57'0 0.0
2016-Dec-07 01:32N 53°30' E 009°57'0 0.0
2016-Dec-07 00:32N 53°30' E 009°57'0 0.0
2016-Dec-06 23:32N 53°30' E 009°57'0 0.0
2016-Dec-06 22:29N 53°30' E 009°57'0 0.0
2016-Dec-06 21:32N 53°30' E 009°57'0 0.0
2016-Dec-06 20:32N 53°30' E 009°57'0 0.0
2016-Dec-06 18:29N 53°30' E 009°57'0 0.0
2016-Dec-06 17:29N 53°30' E 009°57'0 0.0
2016-Dec-06 16:32N 53°30' E 009°57'0 0.0
2016-Dec-06 15:26N 53°30' E 009°57'0 0.0
2016-Dec-06 14:32N 53°30' E 009°57'0 0.0
2016-Dec-06 13:23N 53°30' E 009°57'0 0.0
2016-Dec-06 12:32N 53°30' E 009°57'0 0.0
2016-Dec-06 11:32N 53°30' E 009°57'0 0.0
2016-Dec-06 10:32N 53°30' E 009°57'0 0.0
2016-Dec-06 09:32N 53°30' E 009°57'0 0.0
2016-Dec-06 08:32N 53°30' E 009°57'1 0.7
2016-Dec-06 07:34N 53°31' E 009°57'6 6.2
2016-Dec-06 06:34N 53°33' E 009°47'1010.5
2016-Dec-06 05:33N 53°38' E 009°32'1111.4
2016-Dec-06 04:33N 53°48' E 009°23'10 9.9
2016-Dec-06 03:33N 53°53' E 009°08'1211.8
2016-Dec-06 02:33N 53°50' E 008°48'1111.3
2016-Dec-06 01:34N 53°58' E 008°34'1312.8
2016-Dec-06 00:33N 53°60' E 008°12'1010.1
2016-Dec-05 23:33N 53°59' E 007°55'6 5.8
2016-Dec-05 22:32N 54°03' E 007°49'0 0.1
2016-Dec-05 18:25N 54°04' E 007°49'0 0.1
2016-Dec-05 17:10N 54°04' E 007°49'0 0.1
2016-Dec-05 15:33N 54°04' E 007°49'1 1.5
2016-Dec-05 14:34N 54°05' E 007°48'13 9.9
2016-Dec-05 13:17N 54°09' E 007°27'1013.6
2016-Dec-05 12:34N 54°09' E 007°11'1413.8
2016-Dec-05 11:33N 54°09' E 006°47'1413.6
2016-Dec-05 10:32N 54°09' E 006°23'1713.3
2016-Dec-05 09:17N 54°06' E 005°55'6711.7
2016-Dec-05 03:32N 53°41' E 004°09'1712.0
2016-Dec-05 02:07N 53°30' E 003°46'812.1
2016-Dec-05 01:29N 53°23' E 003°41'3511.8
2016-Dec-04 22:33N 52°52' E 003°18'5212.7
2016-Dec-04 18:27N 52°05' E 002°39'1314.0
2016-Dec-04 17:31N 51°52' E 002°40'1313.9
2016-Dec-04 16:33N 51°41' E 002°29'1414.0
2016-Dec-04 15:33N 51°30' E 002°14'1313.4
2016-Dec-04 14:34N 51°18' E 002°07'1413.7
2016-Dec-04 13:33N 51°09' E 001°50'1413.8
2016-Dec-04 12:33N 50°59' E 001°34'1312.5
2016-Dec-04 11:33N 50°48' E 001°24'4511.4
2016-Dec-04 07:33N 50°23' E 000°25'1110.9
2016-Dec-04 06:33N 50°20' E 000°09'1110.5
2016-Dec-04 05:33N 50°17' W 000°07'3210.0
2016-Dec-04 02:19N 50°08' W 000°56'810.9
2016-Dec-04 01:32N 50°06' W 001°09'1212.0
2016-Dec-04 00:33N 50°03' W 001°26'1313.2
2016-Dec-03 23:33N 49°59' W 001°46'1614.0
2016-Dec-03 22:23N 49°56' W 002°11'2513.5
2016-Dec-03 20:33N 49°50' W 002°48'1312.4
2016-Dec-03 19:31N 49°45' W 003°07'1212.3
2016-Dec-03 18:33N 49°39' W 003°23'  
2016-Nov-29 14:33N 39°52' W 028°33'1212.1
2016-Nov-29 13:34N 39°46' W 028°47'1212.2
2016-Nov-29 12:33N 39°40' W 029°01'1212.4
2016-Nov-29 11:34N 39°34' W 029°15'1312.5
2016-Nov-29 10:33N 39°27' W 029°29'1212.3
2016-Nov-29 09:33N 39°19' W 029°41'1212.2
2016-Nov-29 08:33N 39°12' W 029°54'1212.0
2016-Nov-29 07:33N 39°05' W 030°06'1212.0
2016-Nov-29 06:33N 38°57' W 030°18'  
Track history (hours):
 
Tides and Currents Weather Stations Pressure Air Temp Water Temp Dewpoint Dewpoint Depression Visibility Wind Speed Wind Dir Waves Ship Positions

Minerva Astra

Last reported at 2016-Dec-09 05:34 UTC. Time now 2016-Dec-09 05:54 UTC.
Position N 54°05' E 008°08'.

Length 248 m; draft 8.5 m.

Type: Ship. MMSI: 256703000.

Date/timePositionNaut miles runAvg speedWind from/ knotsBaromVisibWave heightAir tempDewpointWater temp
2016-Dec-09 05:34N 54°05' E 008°08'0 0.0
2016-Dec-09 04:30N 54°05' E 008°08'0 0.0
2016-Dec-09 00:15N 54°05' E 008°08'0 0.0
2016-Dec-08 22:24N 54°05' E 008°08'0 0.0
2016-Dec-08 19:33N 54°05' E 008°08'0 0.0
2016-Dec-08 18:24N 54°05' E 008°08'1 0.9
2016-Dec-08 17:33N 54°04' E 008°08'5 5.3
2016-Dec-08 16:34N 54°00' E 008°14'1110.8
2016-Dec-08 15:33N 53°58' E 008°32'1111.0
2016-Dec-08 14:33N 53°51' E 008°46'1313.4
2016-Dec-08 13:34N 53°53' E 009°08'1111.3
2016-Dec-08 12:34N 53°46' E 009°24'1414.2
2016-Dec-08 11:34N 53°35' E 009°38'1111.1
2016-Dec-08 10:33N 53°32' E 009°56'2 2.2
2016-Dec-08 09:32N 53°30' E 009°57'0 0.0
2016-Dec-08 08:29N 53°30' E 009°57'0 0.0
2016-Dec-08 07:32N 53°30' E 009°57'0 0.0
2016-Dec-08 06:32N 53°30' E 009°57'0 0.0
2016-Dec-08 05:32N 53°30' E 009°57'0 0.0
2016-Dec-08 04:32N 53°30' E 009°57'0 0.0
2016-Dec-08 03:32N 53°30' E 009°57'0 0.0
2016-Dec-08 02:29N 53°30' E 009°57'0 0.0
2016-Dec-08 01:32N 53°30' E 009°57'0 0.0
2016-Dec-08 00:32N 53°30' E 009°57'0 0.0
2016-Dec-07 23:29N 53°30' E 009°57'0 0.0
2016-Dec-07 22:32N 53°30' E 009°57'0 0.0
2016-Dec-07 21:32N 53°30' E 009°57'0 0.0
2016-Dec-07 20:32N 53°30' E 009°57'0 0.0
2016-Dec-07 19:32N 53°30' E 009°57'0 0.0
2016-Dec-07 18:26N 53°30' E 009°57'0 0.0
2016-Dec-07 17:32N 53°30' E 009°57'0 0.0
2016-Dec-07 16:32N 53°30' E 009°57'0 0.0
2016-Dec-07 15:32N 53°30' E 009°57'0 0.0
2016-Dec-07 14:32N 53°30' E 009°57'0 0.0
2016-Dec-07 13:32N 53°30' E 009°57'0 0.0
2016-Dec-07 12:32N 53°30' E 009°57'0 0.0
2016-Dec-07 11:32N 53°30' E 009°57'0 0.0
2016-Dec-07 10:32N 53°30' E 009°57'0 0.0
2016-Dec-07 09:29N 53°30' E 009°57'0 0.0
2016-Dec-07 08:29N 53°30' E 009°57'0 0.0
2016-Dec-07 07:29N 53°30' E 009°57'0 0.0
2016-Dec-07 06:32N 53°30' E 009°57'0 0.0
2016-Dec-07 05:32N 53°30' E 009°57'0 0.0
2016-Dec-07 04:26N 53°30' E 009°57'0 0.0
2016-Dec-07 03:29N 53°30' E 009°57'0 0.0
2016-Dec-07 02:32N 53°30' E 009°57'0 0.0
2016-Dec-07 01:32N 53°30' E 009°57'0 0.0
2016-Dec-07 00:32N 53°30' E 009°57'0 0.0
2016-Dec-06 23:32N 53°30' E 009°57'0 0.0
2016-Dec-06 22:29N 53°30' E 009°57'0 0.0
2016-Dec-06 21:32N 53°30' E 009°57'0 0.0
2016-Dec-06 20:32N 53°30' E 009°57'0 0.0
2016-Dec-06 18:29N 53°30' E 009°57'0 0.0
2016-Dec-06 17:29N 53°30' E 009°57'0 0.0
2016-Dec-06 16:32N 53°30' E 009°57'0 0.0
2016-Dec-06 15:26N 53°30' E 009°57'0 0.0
2016-Dec-06 14:32N 53°30' E 009°57'0 0.0
2016-Dec-06 13:23N 53°30' E 009°57'0 0.0
2016-Dec-06 12:32N 53°30' E 009°57'0 0.0
2016-Dec-06 11:32N 53°30' E 009°57'0 0.0
2016-Dec-06 10:32N 53°30' E 009°57'0 0.0
2016-Dec-06 09:32N 53°30' E 009°57'0 0.0
2016-Dec-06 08:32N 53°30' E 009°57'1 0.7
2016-Dec-06 07:34N 53°31' E 009°57'6 6.2
2016-Dec-06 06:34N 53°33' E 009°47'1010.5
2016-Dec-06 05:33N 53°38' E 009°32'1111.4
2016-Dec-06 04:33N 53°48' E 009°23'10 9.9
2016-Dec-06 03:33N 53°53' E 009°08'1211.8
2016-Dec-06 02:33N 53°50' E 008°48'1111.3
2016-Dec-06 01:34N 53°58' E 008°34'1312.8
2016-Dec-06 00:33N 53°60' E 008°12'1010.1
2016-Dec-05 23:33N 53°59' E 007°55'6 5.8
2016-Dec-05 22:32N 54°03' E 007°49'0 0.1
2016-Dec-05 18:25N 54°04' E 007°49'0 0.1
2016-Dec-05 17:10N 54°04' E 007°49'0 0.1
2016-Dec-05 15:33N 54°04' E 007°49'1 1.5
2016-Dec-05 14:34N 54°05' E 007°48'13 9.9
2016-Dec-05 13:17N 54°09' E 007°27'1013.6
2016-Dec-05 12:34N 54°09' E 007°11'1413.8
2016-Dec-05 11:33N 54°09' E 006°47'1413.6
2016-Dec-05 10:32N 54°09' E 006°23'1713.3
2016-Dec-05 09:17N 54°06' E 005°55'6711.7
2016-Dec-05 03:32N 53°41' E 004°09'1712.0
2016-Dec-05 02:07N 53°30' E 003°46'812.1
2016-Dec-05 01:29N 53°23' E 003°41'3511.8
2016-Dec-04 22:33N 52°52' E 003°18'5212.7
2016-Dec-04 18:27N 52°05' E 002°39'1314.0
2016-Dec-04 17:31N 51°52' E 002°40'1313.9
2016-Dec-04 16:33N 51°41' E 002°29'1414.0
2016-Dec-04 15:33N 51°30' E 002°14'1313.4
2016-Dec-04 14:34N 51°18' E 002°07'1413.7
2016-Dec-04 13:33N 51°09' E 001°50'1413.8
2016-Dec-04 12:33N 50°59' E 001°34'1312.5
2016-Dec-04 11:33N 50°48' E 001°24'4511.4
2016-Dec-04 07:33N 50°23' E 000°25'1110.9
2016-Dec-04 06:33N 50°20' E 000°09'1110.5
2016-Dec-04 05:33N 50°17' W 000°07'3210.0
2016-Dec-04 02:19N 50°08' W 000°56'810.9
2016-Dec-04 01:32N 50°06' W 001°09'1212.0
2016-Dec-04 00:33N 50°03' W 001°26'1313.2
2016-Dec-03 23:33N 49°59' W 001°46'1614.0
2016-Dec-03 22:23N 49°56' W 002°11'2513.5
2016-Dec-03 20:33N 49°50' W 002°48'1312.4
2016-Dec-03 19:31N 49°45' W 003°07'1212.3
2016-Dec-03 18:33N 49°39' W 003°23'  
2016-Nov-29 14:33N 39°52' W 028°33'1212.1
2016-Nov-29 13:34N 39°46' W 028°47'1212.2
2016-Nov-29 12:33N 39°40' W 029°01'1212.4
2016-Nov-29 11:34N 39°34' W 029°15'1312.5
2016-Nov-29 10:33N 39°27' W 029°29'1212.3
2016-Nov-29 09:33N 39°19' W 029°41'1212.2
2016-Nov-29 08:33N 39°12' W 029°54'1212.0
2016-Nov-29 07:33N 39°05' W 030°06'1212.0
2016-Nov-29 06:33N 38°57' W 030°18'  

Dump ship's entire track history